sensor_id;sensor_type;location;lat;lon;timestamp;P1;durP1;ratioP1;P2;durP2;ratioP2
9234;SDS011;4652;42.716;23.218;2023-09-19T00:04:51;11.90;;;10.70;;
9234;SDS011;4652;42.716;23.218;2023-09-19T00:11:34;13.00;;;11.10;;
9234;SDS011;4652;42.716;23.218;2023-09-19T00:18:17;12.33;;;11.10;;
9234;SDS011;4652;42.716;23.218;2023-09-19T00:25:01;11.93;;;10.70;;
9234;SDS011;4652;42.716;23.218;2023-09-19T00:31:44;11.97;;;10.77;;
9234;SDS011;4652;42.716;23.218;2023-09-19T00:38:27;11.67;;;10.53;;
9234;SDS011;4652;42.716;23.218;2023-09-19T00:45:11;11.13;;;10.03;;
9234;SDS011;4652;42.716;23.218;2023-09-19T00:51:54;11.83;;;10.57;;
9234;SDS011;4652;42.716;23.218;2023-09-19T00:58:39;11.23;;;10.07;;
9234;SDS011;4652;42.716;23.218;2023-09-19T01:07:59;11.03;;;9.93;;
9234;SDS011;4652;42.716;23.218;2023-09-19T01:14:44;11.27;;;9.73;;
9234;SDS011;4652;42.716;23.218;2023-09-19T01:21:40;10.43;;;9.13;;
9234;SDS011;4652;42.716;23.218;2023-09-19T01:28:57;10.27;;;9.27;;
9234;SDS011;4652;42.716;23.218;2023-09-19T01:35:55;10.23;;;9.23;;
9234;SDS011;4652;42.716;23.218;2023-09-19T01:42:46;10.60;;;9.50;;
9234;SDS011;4652;42.716;23.218;2023-09-19T01:49:37;9.90;;;9.00;;
9234;SDS011;4652;42.716;23.218;2023-09-19T01:56:30;9.43;;;8.53;;
9234;SDS011;4652;42.716;23.218;2023-09-19T02:03:16;10.37;;;9.23;;
9234;SDS011;4652;42.716;23.218;2023-09-19T02:09:58;10.97;;;9.63;;
9234;SDS011;4652;42.716;23.218;2023-09-19T02:16:42;10.37;;;8.77;;
9234;SDS011;4652;42.716;23.218;2023-09-19T02:23:25;10.20;;;9.20;;
9234;SDS011;4652;42.716;23.218;2023-09-19T02:30:07;10.10;;;9.10;;
9234;SDS011;4652;42.716;23.218;2023-09-19T02:36:51;10.13;;;9.13;;
9234;SDS011;4652;42.716;23.218;2023-09-19T02:43:34;10.50;;;9.50;;
9234;SDS011;4652;42.716;23.218;2023-09-19T02:50:16;10.83;;;9.77;;
9234;SDS011;4652;42.716;23.218;2023-09-19T02:57:00;9.73;;;8.83;;
9234;SDS011;4652;42.716;23.218;2023-09-19T03:03:43;10.43;;;9.33;;
9234;SDS011;4652;42.716;23.218;2023-09-19T03:10:26;10.13;;;9.13;;
9234;SDS011;4652;42.716;23.218;2023-09-19T03:17:10;11.50;;;9.43;;
9234;SDS011;4652;42.716;23.218;2023-09-19T03:23:55;10.73;;;9.73;;
9234;SDS011;4652;42.716;23.218;2023-09-19T03:30:37;12.80;;;8.97;;
9234;SDS011;4652;42.716;23.218;2023-09-19T03:37:21;12.10;;;9.87;;
9234;SDS011;4652;42.716;23.218;2023-09-19T03:44:03;10.83;;;9.07;;
9234;SDS011;4652;42.716;23.218;2023-09-19T03:50:46;9.40;;;8.40;;
9234;SDS011;4652;42.716;23.218;2023-09-19T03:57:29;10.50;;;8.67;;
9234;SDS011;4652;42.716;23.218;2023-09-19T04:04:11;11.47;;;9.20;;
9234;SDS011;4652;42.716;23.218;2023-09-19T04:10:54;11.27;;;8.90;;
9234;SDS011;4652;42.716;23.218;2023-09-19T04:17:38;13.27;;;9.43;;
9234;SDS011;4652;42.716;23.218;2023-09-19T04:24:20;11.47;;;8.90;;
9234;SDS011;4652;42.716;23.218;2023-09-19T04:31:02;11.20;;;9.27;;
9234;SDS011;4652;42.716;23.218;2023-09-19T04:37:45;10.53;;;9.40;;
9234;SDS011;4652;42.716;23.218;2023-09-19T04:44:28;11.70;;;9.73;;
9234;SDS011;4652;42.716;23.218;2023-09-19T04:51:10;14.43;;;10.93;;
9234;SDS011;4652;42.716;23.218;2023-09-19T04:57:54;11.27;;;10.03;;
9234;SDS011;4652;42.716;23.218;2023-09-19T05:04:36;10.57;;;9.57;;
9234;SDS011;4652;42.716;23.218;2023-09-19T05:11:18;11.90;;;9.47;;
9234;SDS011;4652;42.716;23.218;2023-09-19T05:18:03;9.83;;;8.83;;
9234;SDS011;4652;42.716;23.218;2023-09-19T05:24:46;9.80;;;8.60;;
9234;SDS011;4652;42.716;23.218;2023-09-19T05:31:28;10.67;;;8.23;;
9234;SDS011;4652;42.716;23.218;2023-09-19T05:38:12;11.53;;;8.40;;
9234;SDS011;4652;42.716;23.218;2023-09-19T05:44:56;12.13;;;7.67;;
9234;SDS011;4652;42.716;23.218;2023-09-19T05:51:38;9.03;;;8.17;;
9234;SDS011;4652;42.716;23.218;2023-09-19T05:58:22;8.00;;;7.30;;
9234;SDS011;4652;42.716;23.218;2023-09-19T06:05:04;9.13;;;8.23;;
9234;SDS011;4652;42.716;23.218;2023-09-19T06:11:50;10.20;;;8.93;;
9234;SDS011;4652;42.716;23.218;2023-09-19T06:18:33;10.93;;;8.93;;
9234;SDS011;4652;42.716;23.218;2023-09-19T06:25:16;11.83;;;8.50;;
9234;SDS011;4652;42.716;23.218;2023-09-19T06:31:59;9.55;;;8.50;;
9234;SDS011;4652;42.716;23.218;2023-09-19T06:38:43;10.50;;;8.93;;
9234;SDS011;4652;42.716;23.218;2023-09-19T06:45:25;9.93;;;8.60;;
9234;SDS011;4652;42.716;23.218;2023-09-19T06:52:07;10.57;;;8.63;;
9234;SDS011;4652;42.716;23.218;2023-09-19T06:58:50;12.30;;;9.40;;
9234;SDS011;4652;42.716;23.218;2023-09-19T08:38:29;8.20;;;7.20;;
9234;SDS011;4652;42.716;23.218;2023-09-19T08:45:13;11.10;;;7.90;;
9234;SDS011;4652;42.716;23.218;2023-09-19T08:51:57;9.57;;;8.60;;
9234;SDS011;4652;42.716;23.218;2023-09-19T08:58:53;11.77;;;8.53;;
9234;SDS011;4652;42.716;23.218;2023-09-19T09:05:38;9.67;;;7.80;;
9234;SDS011;4652;42.716;23.218;2023-09-19T09:12:26;10.83;;;7.63;;
9234;SDS011;4652;42.716;23.218;2023-09-19T09:19:09;9.03;;;7.30;;
9234;SDS011;4652;42.716;23.218;2023-09-19T09:25:54;11.43;;;7.70;;
9234;SDS011;4652;42.716;23.218;2023-09-19T09:32:40;9.57;;;6.93;;
9234;SDS011;4652;42.716;23.218;2023-09-19T09:39:31;8.43;;;6.70;;
9234;SDS011;4652;42.716;23.218;2023-09-19T09:46:15;8.80;;;7.27;;
9234;SDS011;4652;42.716;23.218;2023-09-19T09:53:21;11.07;;;7.47;;
9234;SDS011;4652;42.716;23.218;2023-09-19T10:00:09;7.47;;;6.77;;
9234;SDS011;4652;42.716;23.218;2023-09-19T10:07:01;7.47;;;6.70;;
9234;SDS011;4652;42.716;23.218;2023-09-19T10:13:46;10.00;;;7.63;;
9234;SDS011;4652;42.716;23.218;2023-09-19T10:20:30;12.50;;;7.73;;
9234;SDS011;4652;42.716;23.218;2023-09-19T10:27:17;7.70;;;6.90;;
9234;SDS011;4652;42.716;23.218;2023-09-19T10:34:03;8.73;;;7.00;;
9234;SDS011;4652;42.716;23.218;2023-09-19T10:40:50;8.87;;;7.13;;
9234;SDS011;4652;42.716;23.218;2023-09-19T10:47:33;8.37;;;7.10;;
9234;SDS011;4652;42.716;23.218;2023-09-19T10:54:18;8.13;;;7.07;;
9234;SDS011;4652;42.716;23.218;2023-09-19T11:01:05;8.70;;;6.93;;
9234;SDS011;4652;42.716;23.218;2023-09-19T11:07:57;9.07;;;7.77;;
9234;SDS011;4652;42.716;23.218;2023-09-19T11:14:41;13.50;;;7.60;;
9234;SDS011;4652;42.716;23.218;2023-09-19T11:28:38;10.32;;;7.57;;
9234;SDS011;4652;42.716;23.218;2023-09-19T11:35:21;10.82;;;7.65;;
9234;SDS011;4652;42.716;23.218;2023-09-19T11:42:09;8.23;;;7.43;;
9234;SDS011;4652;42.716;23.218;2023-09-19T11:49:26;9.35;;;7.55;;
9234;SDS011;4652;42.716;23.218;2023-09-19T11:56:10;8.55;;;7.30;;
9234;SDS011;4652;42.716;23.218;2023-09-19T12:02:56;8.93;;;7.25;;
9234;SDS011;4652;42.716;23.218;2023-09-19T12:09:49;8.18;;;7.40;;
9234;SDS011;4652;42.716;23.218;2023-09-19T12:16:50;9.43;;;6.75;;
9234;SDS011;4652;42.716;23.218;2023-09-19T12:23:36;10.88;;;6.88;;
9234;SDS011;4652;42.716;23.218;2023-09-19T12:30:26;8.32;;;7.00;;
9234;SDS011;4652;42.716;23.218;2023-09-19T12:37:13;6.80;;;6.10;;
9234;SDS011;4652;42.716;23.218;2023-09-19T12:44:02;9.52;;;6.90;;
9234;SDS011;4652;42.716;23.218;2023-09-19T12:50:59;12.30;;;7.47;;
9234;SDS011;4652;42.716;23.218;2023-09-19T12:57:54;8.57;;;6.97;;
9234;SDS011;4652;42.716;23.218;2023-09-19T15:18:30;9.25;;;6.85;;
9234;SDS011;4652;42.716;23.218;2023-09-19T15:25:13;7.63;;;6.47;;
9234;SDS011;4652;42.716;23.218;2023-09-19T15:31:56;7.97;;;6.45;;
9234;SDS011;4652;42.716;23.218;2023-09-19T15:38:55;7.55;;;6.85;;
9234;SDS011;4652;42.716;23.218;2023-09-19T15:45:39;10.13;;;7.30;;
9234;SDS011;4652;42.716;23.218;2023-09-19T15:52:21;10.00;;;7.72;;
9234;SDS011;4652;42.716;23.218;2023-09-19T15:59:08;10.18;;;7.35;;
9234;SDS011;4652;42.716;23.218;2023-09-19T16:05:52;8.75;;;7.40;;
9234;SDS011;4652;42.716;23.218;2023-09-19T16:12:34;8.20;;;7.20;;
9234;SDS011;4652;42.716;23.218;2023-09-19T16:19:19;10.10;;;7.63;;
9234;SDS011;4652;42.716;23.218;2023-09-19T16:26:01;9.65;;;7.78;;
9234;SDS011;4652;42.716;23.218;2023-09-19T16:32:46;10.57;;;8.33;;
9234;SDS011;4652;42.716;23.218;2023-09-19T16:39:29;13.23;;;8.70;;
9234;SDS011;4652;42.716;23.218;2023-09-19T16:46:11;12.00;;;9.27;;
9234;SDS011;4652;42.716;23.218;2023-09-19T16:52:56;12.53;;;9.33;;
9234;SDS011;4652;42.716;23.218;2023-09-19T16:59:39;12.80;;;9.67;;
9234;SDS011;4652;42.716;23.218;2023-09-19T17:06:21;12.20;;;9.60;;
9234;SDS011;4652;42.716;23.218;2023-09-19T17:13:04;18.47;;;10.93;;
9234;SDS011;4652;42.716;23.218;2023-09-19T17:19:49;13.83;;;10.00;;
9234;SDS011;4652;42.716;23.218;2023-09-19T17:26:31;9.67;;;8.77;;
9234;SDS011;4652;42.716;23.218;2023-09-19T17:33:13;9.87;;;8.87;;
9234;SDS011;4652;42.716;23.218;2023-09-19T17:39:57;10.43;;;9.43;;
9234;SDS011;4652;42.716;23.218;2023-09-19T17:46:42;10.13;;;9.03;;
9234;SDS011;4652;42.716;23.218;2023-09-19T17:53:24;10.10;;;8.83;;
9234;SDS011;4652;42.716;23.218;2023-09-19T18:00:10;10.77;;;8.47;;
9234;SDS011;4652;42.716;23.218;2023-09-19T18:06:53;11.97;;;8.83;;
9234;SDS011;4652;42.716;23.218;2023-09-19T18:13:35;10.13;;;8.97;;
9234;SDS011;4652;42.716;23.218;2023-09-19T18:20:19;10.03;;;9.03;;
9234;SDS011;4652;42.716;23.218;2023-09-19T18:27:02;9.70;;;8.70;;
9234;SDS011;4652;42.716;23.218;2023-09-19T19:07:58;11.50;;;9.70;;
9234;SDS011;4652;42.716;23.218;2023-09-19T19:14:41;11.03;;;9.63;;
9234;SDS011;4652;42.716;23.218;2023-09-19T19:21:25;12.87;;;10.87;;
9234;SDS011;4652;42.716;23.218;2023-09-19T19:28:08;11.77;;;10.57;;
9234;SDS011;4652;42.716;23.218;2023-09-19T19:34:50;10.80;;;9.73;;
9234;SDS011;4652;42.716;23.218;2023-09-19T19:41:35;10.87;;;9.87;;
9234;SDS011;4652;42.716;23.218;2023-09-19T19:48:20;11.33;;;10.13;;
9234;SDS011;4652;42.716;23.218;2023-09-19T19:55:02;11.73;;;9.60;;
9234;SDS011;4652;42.716;23.218;2023-09-19T20:01:46;13.03;;;8.87;;
9234;SDS011;4652;42.716;23.218;2023-09-19T20:08:31;9.07;;;8.27;;
9234;SDS011;4652;42.716;23.218;2023-09-19T20:15:13;11.47;;;9.40;;
9234;SDS011;4652;42.716;23.218;2023-09-19T20:21:55;9.97;;;8.43;;
9234;SDS011;4652;42.716;23.218;2023-09-19T20:28:39;9.53;;;8.47;;
9234;SDS011;4652;42.716;23.218;2023-09-19T20:35:22;10.17;;;7.43;;
9234;SDS011;4652;42.716;23.218;2023-09-19T20:54:56;13.93;;;7.27;;
9234;SDS011;4652;42.716;23.218;2023-09-19T21:01:38;10.60;;;6.07;;
9234;SDS011;4652;42.716;23.218;2023-09-19T21:08:20;5.87;;;5.33;;
9234;SDS011;4652;42.716;23.218;2023-09-19T21:15:03;5.60;;;4.83;;
9234;SDS011;4652;42.716;23.218;2023-09-19T21:21:46;9.23;;;5.63;;
9234;SDS011;4652;42.716;23.218;2023-09-19T21:28:29;6.47;;;5.37;;
9234;SDS011;4652;42.716;23.218;2023-09-19T21:35:12;10.77;;;5.57;;
9234;SDS011;4652;42.716;23.218;2023-09-19T21:41:54;7.73;;;5.20;;
9234;SDS011;4652;42.716;23.218;2023-09-19T21:48:36;6.73;;;5.20;;
9234;SDS011;4652;42.716;23.218;2023-09-19T21:55:19;6.60;;;5.00;;
9234;SDS011;4652;42.716;23.218;2023-09-19T22:02:06;6.70;;;5.50;;
9234;SDS011;4652;42.716;23.218;2023-09-19T22:08:49;5.50;;;4.90;;
9234;SDS011;4652;42.716;23.218;2023-09-19T22:15:33;4.63;;;4.20;;
9234;SDS011;4652;42.716;23.218;2023-09-19T22:22:15;5.03;;;4.47;;
9234;SDS011;4652;42.716;23.218;2023-09-19T22:28:58;6.10;;;4.40;;
9234;SDS011;4652;42.716;23.218;2023-09-19T22:35:41;6.13;;;4.77;;
9234;SDS011;4652;42.716;23.218;2023-09-19T22:42:27;5.30;;;4.37;;
9234;SDS011;4652;42.716;23.218;2023-09-19T22:49:09;7.77;;;4.73;;
9234;SDS011;4652;42.716;23.218;2023-09-19T22:55:58;5.00;;;4.20;;
9234;SDS011;4652;42.716;23.218;2023-09-19T23:02:39;4.77;;;4.27;;
9234;SDS011;4652;42.716;23.218;2023-09-19T23:09:23;7.43;;;4.17;;
9234;SDS011;4652;42.716;23.218;2023-09-19T23:16:08;5.40;;;4.53;;
9234;SDS011;4652;42.716;23.218;2023-09-19T23:22:52;6.70;;;4.07;;
9234;SDS011;4652;42.716;23.218;2023-09-19T23:29:38;5.50;;;4.53;;
9234;SDS011;4652;42.716;23.218;2023-09-19T23:36:22;4.53;;;4.13;;
9234;SDS011;4652;42.716;23.218;2023-09-19T23:43:04;5.23;;;4.20;;
9234;SDS011;4652;42.716;23.218;2023-09-19T23:49:51;5.43;;;4.20;;
9234;SDS011;4652;42.716;23.218;2023-09-19T23:56:35;6.63;;;5.37;;
